createdAt,value
2023-03-22T00:00:57.442Z,3.62
2023-03-22T00:06:00.228Z,3.54
2023-03-22T00:11:03.512Z,3.51
2023-03-22T00:16:07.379Z,3.48
2023-03-22T00:21:16.108Z,3.48
2023-03-22T00:26:19.081Z,3.48
2023-03-22T00:31:21.862Z,3.49
2023-03-22T00:36:24.714Z,3.46
2023-03-22T00:41:28.797Z,3.41
2023-03-22T00:46:31.670Z,3.37
2023-03-22T00:51:36.453Z,3.37
2023-03-22T00:56:39.283Z,3.43
2023-03-22T01:01:42.955Z,3.54
2023-03-22T01:06:47.156Z,3.70
2023-03-22T01:11:49.915Z,3.83
2023-03-22T01:16:57.690Z,3.88
2023-03-22T01:22:01.231Z,3.91
2023-03-22T01:27:04.018Z,3.94
2023-03-22T01:32:06.832Z,3.98
2023-03-22T01:37:09.619Z,4.07
2023-03-22T01:42:17.307Z,4.20
2023-03-22T01:47:23.619Z,4.33
2023-03-22T01:52:26.615Z,4.41
2023-03-22T01:57:29.720Z,4.45
2023-03-22T02:02:32.751Z,4.47
2023-03-22T02:07:39.229Z,4.50
2023-03-22T02:13:15.484Z,4.54
2023-03-22T02:18:42.870Z,4.57
2023-03-22T02:24:04.334Z,4.58
2023-03-22T02:29:30.201Z,4.61
2023-03-22T02:35:00.798Z,4.59
2023-03-22T02:40:40.292Z,4.54
2023-03-22T02:46:01.803Z,4.48
2023-03-22T02:51:15.505Z,4.47
2023-03-22T02:56:41.593Z,4.48
2023-03-22T03:01:50.486Z,4.44
2023-03-22T03:07:00.486Z,4.42
2023-03-22T03:12:13.653Z,4.41
2023-03-22T03:17:57.643Z,4.43
2023-03-22T03:23:19.971Z,4.55
2023-03-22T03:28:38.568Z,4.65
2023-03-22T03:33:52.012Z,4.71
2023-03-22T03:38:58.224Z,4.78
2023-03-22T03:44:02.405Z,4.82
2023-03-22T03:49:07.654Z,4.89
2023-03-22T03:54:10.499Z,5.02
2023-03-22T03:59:16.063Z,5.14
2023-03-22T04:04:29.526Z,5.27
2023-03-22T04:09:35.766Z,5.37
2023-03-22T04:14:39.454Z,5.44
2023-03-22T04:19:44.757Z,5.48
2023-03-22T04:24:50.243Z,5.54
2023-03-22T04:29:54.690Z,5.63
2023-03-22T04:34:58.989Z,5.70
2023-03-22T04:40:02.031Z,5.72
2023-03-22T04:45:05.337Z,5.76
2023-03-22T04:50:09.037Z,5.81
2023-03-22T04:55:11.777Z,5.90
2023-03-22T05:00:15.718Z,6.02
2023-03-22T05:05:18.900Z,6.13
2023-03-22T05:10:21.740Z,6.23
2023-03-22T05:15:24.558Z,6.26
2023-03-22T05:20:27.835Z,6.29
2023-03-22T05:25:30.682Z,6.37
2023-03-22T05:30:33.836Z,6.47
2023-03-22T05:35:39.141Z,6.56
2023-03-22T05:40:43.137Z,6.59
2023-03-22T05:45:48.206Z,6.58
2023-03-22T05:50:51.023Z,6.61
2023-03-22T05:55:57.720Z,6.64
2023-03-22T06:01:13.270Z,6.70
2023-03-22T06:06:16.254Z,6.74
2023-03-22T06:11:19.917Z,6.80
2023-03-22T06:16:22.681Z,6.84
2023-03-22T06:21:25.910Z,6.88
2023-03-22T06:26:28.822Z,6.92
2023-03-22T06:31:31.617Z,6.95
2023-03-22T06:36:34.352Z,6.97
2023-03-22T06:41:37.769Z,7.01
2023-03-22T06:46:40.576Z,7.09
2023-03-22T06:51:43.889Z,7.17
2023-03-22T06:56:47.041Z,7.24
2023-03-22T07:02:02.737Z,7.28
2023-03-22T07:07:08.597Z,7.30
2023-03-22T07:12:44.497Z,7.35
2023-03-22T07:18:22.956Z,7.43
2023-03-22T07:23:42.950Z,7.50
2023-03-22T07:28:58.348Z,7.53
2023-03-22T07:34:11.560Z,7.54
2023-03-22T07:39:14.591Z,7.61
2023-03-22T07:44:18.612Z,7.71
2023-03-22T07:49:27.286Z,7.77
2023-03-22T07:54:34.113Z,7.79
2023-03-22T07:59:39.881Z,7.79
2023-03-22T08:04:42.935Z,7.81
2023-03-22T08:10:11.957Z,7.82
2023-03-22T08:22:26.036Z,7.92
2023-03-22T08:27:28.916Z,7.89
2023-03-22T08:32:33.643Z,7.87
2023-03-22T08:37:36.488Z,7.86
2023-03-22T08:42:39.506Z,7.88
2023-03-22T08:47:44.411Z,7.91
2023-03-22T08:52:47.204Z,7.93
2023-03-22T08:57:50.524Z,7.96
2023-03-22T09:02:53.455Z,7.97
2023-03-22T09:08:04.963Z,7.98
2023-03-22T09:13:10.363Z,7.98
2023-03-22T09:18:14.581Z,7.95
2023-03-22T09:23:17.502Z,7.96
2023-03-22T09:28:20.379Z,7.96
2023-03-22T09:33:25.351Z,7.98
2023-03-22T09:38:28.227Z,8.02
2023-03-22T09:43:45.882Z,8.06
2023-03-22T09:48:50.875Z,8.13
2023-03-22T09:53:54.132Z,8.19
2023-03-22T09:59:23.104Z,8.30
2023-03-22T10:05:03.458Z,8.43
2023-03-22T10:10:20.906Z,8.55
2023-03-22T10:15:49.221Z,8.65
2023-03-22T10:21:00.118Z,8.72
2023-03-22T10:26:05.034Z,8.78
2023-03-22T10:31:15.854Z,8.79
2023-03-22T10:36:45.845Z,8.85
2023-03-22T10:41:51.275Z,8.89
2023-03-22T10:46:57.904Z,8.91
2023-03-22T10:52:49.735Z,8.92
2023-03-22T10:58:14.803Z,8.93
2023-03-22T11:03:35.331Z,8.92
2023-03-22T11:08:51.141Z,8.95
2023-03-22T11:14:00.210Z,8.92
2023-03-22T11:19:03.583Z,8.97
2023-03-22T11:24:08.263Z,9.00
2023-03-22T11:29:19.008Z,9.03
2023-03-22T11:34:24.490Z,9.07
2023-03-22T11:39:28.938Z,9.06
2023-03-22T11:44:36.667Z,9.06
2023-03-22T11:49:52.060Z,9.08
2023-03-22T11:55:04.132Z,9.15
2023-03-22T12:00:26.741Z,9.21
2023-03-22T12:05:37.280Z,9.27
2023-03-22T12:10:43.994Z,9.32
2023-03-22T12:15:56.616Z,9.38
2023-03-22T12:21:01.627Z,9.45
2023-03-22T12:26:08.514Z,9.50
2023-03-22T12:31:21.802Z,9.51
2023-03-22T12:36:34.973Z,9.56
2023-03-22T12:41:42.636Z,9.65
2023-03-22T12:46:52.821Z,9.74
2023-03-22T12:52:06.636Z,9.84
2023-03-22T12:57:19.430Z,9.91
2023-03-22T13:02:33.071Z,9.94
2023-03-22T13:07:48.291Z,9.98
2023-03-22T13:13:16.443Z,10.04
2023-03-22T13:18:53.303Z,10.10
2023-03-22T13:24:15.479Z,10.12
2023-03-22T13:29:36.668Z,10.15
2023-03-22T13:34:46.551Z,10.13
2023-03-22T13:39:55.151Z,10.12
2023-03-22T13:45:04.831Z,10.13
2023-03-22T13:50:25.565Z,10.14
2023-03-22T13:55:46.160Z,10.22
2023-03-22T14:00:56.156Z,10.29
2023-03-22T14:06:30.342Z,10.34
2023-03-22T14:11:44.426Z,10.61
2023-03-22T14:17:34.152Z,10.91
